sensor_id;sensor_type;location;lat;lon;timestamp;P1;durP1;ratioP1;P2;durP2;ratioP2
22107;SDS011;11220;48.812;9.128;2023-05-02T00:01:03;0.40;;;0.40;;
22107;SDS011;11220;48.812;9.128;2023-05-02T00:03:29;0.55;;;0.55;;
22107;SDS011;11220;48.812;9.128;2023-05-02T00:05:56;0.50;;;0.50;;
22107;SDS011;11220;48.812;9.128;2023-05-02T00:08:22;0.65;;;0.50;;
22107;SDS011;11220;48.812;9.128;2023-05-02T00:10:47;0.50;;;0.50;;
22107;SDS011;11220;48.812;9.128;2023-05-02T00:13:13;0.60;;;0.60;;
22107;SDS011;11220;48.812;9.128;2023-05-02T00:15:39;0.73;;;0.63;;
22107;SDS011;11220;48.812;9.128;2023-05-02T00:18:04;0.73;;;0.50;;
22107;SDS011;11220;48.812;9.128;2023-05-02T00:20:30;0.60;;;0.60;;
22107;SDS011;11220;48.812;9.128;2023-05-02T00:22:55;0.82;;;0.70;;
22107;SDS011;11220;48.812;9.128;2023-05-02T00:25:21;0.50;;;0.50;;
22107;SDS011;11220;48.812;9.128;2023-05-02T00:27:47;0.50;;;0.50;;
22107;SDS011;11220;48.812;9.128;2023-05-02T00:30:14;0.77;;;0.50;;
22107;SDS011;11220;48.812;9.128;2023-05-02T00:32:40;0.50;;;0.50;;
22107;SDS011;11220;48.812;9.128;2023-05-02T00:35:06;0.60;;;0.60;;
22107;SDS011;11220;48.812;9.128;2023-05-02T00:37:32;0.52;;;0.52;;
22107;SDS011;11220;48.812;9.128;2023-05-02T00:39:58;0.50;;;0.50;;
22107;SDS011;11220;48.812;9.128;2023-05-02T00:42:23;0.60;;;0.60;;
22107;SDS011;11220;48.812;9.128;2023-05-02T00:44:49;0.55;;;0.55;;
22107;SDS011;11220;48.812;9.128;2023-05-02T00:47:14;0.50;;;0.50;;
22107;SDS011;11220;48.812;9.128;2023-05-02T00:49:40;0.50;;;0.50;;
22107;SDS011;11220;48.812;9.128;2023-05-02T00:52:06;0.50;;;0.50;;
22107;SDS011;11220;48.812;9.128;2023-05-02T00:54:32;0.52;;;0.52;;
22107;SDS011;11220;48.812;9.128;2023-05-02T00:56:58;0.93;;;0.50;;
22107;SDS011;11220;48.812;9.128;2023-05-02T00:59:23;0.60;;;0.60;;
22107;SDS011;11220;48.812;9.128;2023-05-02T01:02:03;0.50;;;0.50;;
22107;SDS011;11220;48.812;9.128;2023-05-02T01:04:49;0.60;;;0.60;;
22107;SDS011;11220;48.812;9.128;2023-05-02T01:07:50;0.43;;;0.43;;
22107;SDS011;11220;48.812;9.128;2023-05-02T01:13:28;0.52;;;0.52;;
22107;SDS011;11220;48.812;9.128;2023-05-02T01:15:57;0.50;;;0.50;;
22107;SDS011;11220;48.812;9.128;2023-05-02T01:18:25;0.60;;;0.60;;
22107;SDS011;11220;48.812;9.128;2023-05-02T01:21:02;0.50;;;0.50;;
22107;SDS011;11220;48.812;9.128;2023-05-02T01:29:08;0.60;;;0.50;;
22107;SDS011;11220;48.812;9.128;2023-05-02T01:34:07;0.55;;;0.50;;
22107;SDS011;11220;48.812;9.128;2023-05-02T01:36:37;0.65;;;0.60;;
22107;SDS011;11220;48.812;9.128;2023-05-02T01:39:07;0.60;;;0.50;;
22107;SDS011;11220;48.812;9.128;2023-05-02T01:41:36;0.50;;;0.50;;
22107;SDS011;11220;48.812;9.128;2023-05-02T01:44:02;0.60;;;0.60;;
22107;SDS011;11220;48.812;9.128;2023-05-02T01:46:32;0.50;;;0.50;;
22107;SDS011;11220;48.812;9.128;2023-05-02T01:49:01;0.40;;;0.40;;
22107;SDS011;11220;48.812;9.128;2023-05-02T01:51:29;0.43;;;0.43;;
22107;SDS011;11220;48.812;9.128;2023-05-02T01:53:58;0.50;;;0.50;;
22107;SDS011;11220;48.812;9.128;2023-05-02T01:56:25;0.45;;;0.45;;
22107;SDS011;11220;48.812;9.128;2023-05-02T01:58:53;0.60;;;0.50;;
22107;SDS011;11220;48.812;9.128;2023-05-02T02:01:21;0.40;;;0.40;;
22107;SDS011;11220;48.812;9.128;2023-05-02T02:03:51;0.50;;;0.50;;
22107;SDS011;11220;48.812;9.128;2023-05-02T02:06:18;0.57;;;0.55;;
22107;SDS011;11220;48.812;9.128;2023-05-02T02:08:45;0.60;;;0.60;;
22107;SDS011;11220;48.812;9.128;2023-05-02T02:11:11;0.40;;;0.40;;
22107;SDS011;11220;48.812;9.128;2023-05-02T02:13:42;0.50;;;0.50;;
22107;SDS011;11220;48.812;9.128;2023-05-02T02:16:13;0.40;;;0.40;;
22107;SDS011;11220;48.812;9.128;2023-05-02T02:18:46;0.40;;;0.40;;
22107;SDS011;11220;48.812;9.128;2023-05-02T02:21:12;0.68;;;0.63;;
22107;SDS011;11220;48.812;9.128;2023-05-02T02:23:42;0.55;;;0.55;;
22107;SDS011;11220;48.812;9.128;2023-05-02T02:26:18;0.43;;;0.43;;
22107;SDS011;11220;48.812;9.128;2023-05-02T02:28:46;0.60;;;0.60;;
22107;SDS011;11220;48.812;9.128;2023-05-02T02:31:12;0.32;;;0.32;;
22107;SDS011;11220;48.812;9.128;2023-05-02T02:33:37;0.70;;;0.70;;
22107;SDS011;11220;48.812;9.128;2023-05-02T02:36:07;0.50;;;0.50;;
22107;SDS011;11220;48.812;9.128;2023-05-02T02:38:41;1.00;;;0.60;;
22107;SDS011;11220;48.812;9.128;2023-05-02T02:41:14;0.52;;;0.52;;
22107;SDS011;11220;48.812;9.128;2023-05-02T02:46:43;0.50;;;0.50;;
22107;SDS011;11220;48.812;9.128;2023-05-02T02:49:23;0.35;;;0.35;;
22107;SDS011;11220;48.812;9.128;2023-05-02T02:52:13;0.70;;;0.70;;
22107;SDS011;11220;48.812;9.128;2023-05-02T02:55:05;0.60;;;0.60;;
22107;SDS011;11220;48.812;9.128;2023-05-02T02:57:50;0.50;;;0.50;;
22107;SDS011;11220;48.812;9.128;2023-05-02T03:00:24;0.60;;;0.60;;
22107;SDS011;11220;48.812;9.128;2023-05-02T03:02:51;0.60;;;0.60;;
22107;SDS011;11220;48.812;9.128;2023-05-02T03:05:19;0.57;;;0.50;;
22107;SDS011;11220;48.812;9.128;2023-05-02T03:07:46;0.68;;;0.50;;
22107;SDS011;11220;48.812;9.128;2023-05-02T03:10:12;0.52;;;0.50;;
22107;SDS011;11220;48.812;9.128;2023-05-02T03:12:38;0.60;;;0.60;;
22107;SDS011;11220;48.812;9.128;2023-05-02T03:17:38;0.52;;;0.52;;
22107;SDS011;11220;48.812;9.128;2023-05-02T03:20:04;0.50;;;0.50;;
22107;SDS011;11220;48.812;9.128;2023-05-02T03:22:30;0.50;;;0.50;;
22107;SDS011;11220;48.812;9.128;2023-05-02T03:24:56;0.47;;;0.47;;
22107;SDS011;11220;48.812;9.128;2023-05-02T03:27:21;0.43;;;0.43;;
22107;SDS011;11220;48.812;9.128;2023-05-02T03:29:47;0.60;;;0.60;;
22107;SDS011;11220;48.812;9.128;2023-05-02T03:32:12;0.50;;;0.50;;
22107;SDS011;11220;48.812;9.128;2023-05-02T03:34:38;0.60;;;0.60;;
22107;SDS011;11220;48.812;9.128;2023-05-02T03:37:04;0.57;;;0.57;;
22107;SDS011;11220;48.812;9.128;2023-05-02T03:39:29;0.60;;;0.60;;
22107;SDS011;11220;48.812;9.128;2023-05-02T03:41:55;0.88;;;0.70;;
22107;SDS011;11220;48.812;9.128;2023-05-02T03:44:20;0.50;;;0.50;;
22107;SDS011;11220;48.812;9.128;2023-05-02T03:46:46;0.43;;;0.40;;
22107;SDS011;11220;48.812;9.128;2023-05-02T03:49:12;0.60;;;0.60;;
22107;SDS011;11220;48.812;9.128;2023-05-02T03:51:37;0.50;;;0.50;;
22107;SDS011;11220;48.812;9.128;2023-05-02T03:54:04;0.60;;;0.60;;
22107;SDS011;11220;48.812;9.128;2023-05-02T03:56:29;0.40;;;0.40;;
22107;SDS011;11220;48.812;9.128;2023-05-02T03:58:55;0.65;;;0.65;;
22107;SDS011;11220;48.812;9.128;2023-05-02T04:01:20;0.75;;;0.43;;
22107;SDS011;11220;48.812;9.128;2023-05-02T04:03:46;0.43;;;0.43;;
22107;SDS011;11220;48.812;9.128;2023-05-02T04:06:11;0.50;;;0.50;;
22107;SDS011;11220;48.812;9.128;2023-05-02T04:08:37;0.63;;;0.50;;
22107;SDS011;11220;48.812;9.128;2023-05-02T04:11:03;0.85;;;0.50;;
22107;SDS011;11220;48.812;9.128;2023-05-02T04:13:29;0.40;;;0.40;;
22107;SDS011;11220;48.812;9.128;2023-05-02T04:15:55;0.55;;;0.55;;
22107;SDS011;11220;48.812;9.128;2023-05-02T04:18:20;0.50;;;0.50;;
22107;SDS011;11220;48.812;9.128;2023-05-02T04:20:46;0.47;;;0.47;;
22107;SDS011;11220;48.812;9.128;2023-05-02T04:23:11;0.40;;;0.40;;
22107;SDS011;11220;48.812;9.128;2023-05-02T04:25:37;0.40;;;0.40;;
22107;SDS011;11220;48.812;9.128;2023-05-02T04:28:02;0.60;;;0.60;;
22107;SDS011;11220;48.812;9.128;2023-05-02T04:30:28;0.50;;;0.50;;
22107;SDS011;11220;48.812;9.128;2023-05-02T04:32:55;0.73;;;0.70;;
22107;SDS011;11220;48.812;9.128;2023-05-02T04:35:21;0.50;;;0.50;;
22107;SDS011;11220;48.812;9.128;2023-05-02T04:37:46;0.60;;;0.60;;
22107;SDS011;11220;48.812;9.128;2023-05-02T04:40:12;0.40;;;0.40;;
22107;SDS011;11220;48.812;9.128;2023-05-02T04:42:38;0.47;;;0.40;;
22107;SDS011;11220;48.812;9.128;2023-05-02T04:45:03;0.50;;;0.50;;
22107;SDS011;11220;48.812;9.128;2023-05-02T04:47:29;0.40;;;0.40;;
22107;SDS011;11220;48.812;9.128;2023-05-02T04:49:55;0.50;;;0.50;;
22107;SDS011;11220;48.812;9.128;2023-05-02T04:52:20;0.70;;;0.70;;
22107;SDS011;11220;48.812;9.128;2023-05-02T04:54:46;0.57;;;0.57;;
22107;SDS011;11220;48.812;9.128;2023-05-02T04:57:12;0.70;;;0.60;;
22107;SDS011;11220;48.812;9.128;2023-05-02T04:59:37;0.50;;;0.50;;
22107;SDS011;11220;48.812;9.128;2023-05-02T05:02:03;0.40;;;0.40;;
22107;SDS011;11220;48.812;9.128;2023-05-02T05:04:28;0.43;;;0.40;;
22107;SDS011;11220;48.812;9.128;2023-05-02T05:06:54;0.50;;;0.50;;
22107;SDS011;11220;48.812;9.128;2023-05-02T05:09:20;0.50;;;0.50;;
22107;SDS011;11220;48.812;9.128;2023-05-02T05:11:46;0.50;;;0.50;;
22107;SDS011;11220;48.812;9.128;2023-05-02T05:14:11;0.70;;;0.70;;
22107;SDS011;11220;48.812;9.128;2023-05-02T05:16:37;0.57;;;0.57;;
22107;SDS011;11220;48.812;9.128;2023-05-02T05:19:02;0.50;;;0.40;;
22107;SDS011;11220;48.812;9.128;2023-05-02T05:21:29;0.50;;;0.50;;
22107;SDS011;11220;48.812;9.128;2023-05-02T05:23:55;0.70;;;0.70;;
22107;SDS011;11220;48.812;9.128;2023-05-02T05:26:20;0.75;;;0.55;;
22107;SDS011;11220;48.812;9.128;2023-05-02T05:28:47;0.70;;;0.60;;
22107;SDS011;11220;48.812;9.128;2023-05-02T05:31:14;0.60;;;0.60;;
22107;SDS011;11220;48.812;9.128;2023-05-02T05:33:41;1.00;;;0.82;;
22107;SDS011;11220;48.812;9.128;2023-05-02T05:36:08;0.70;;;0.70;;
22107;SDS011;11220;48.812;9.128;2023-05-02T05:38:35;0.70;;;0.70;;
22107;SDS011;11220;48.812;9.128;2023-05-02T05:41:00;0.60;;;0.60;;
22107;SDS011;11220;48.812;9.128;2023-05-02T05:43:27;0.68;;;0.68;;
22107;SDS011;11220;48.812;9.128;2023-05-02T05:45:53;0.47;;;0.47;;
22107;SDS011;11220;48.812;9.128;2023-05-02T05:48:19;0.68;;;0.68;;
22107;SDS011;11220;48.812;9.128;2023-05-02T05:50:45;0.70;;;0.70;;
22107;SDS011;11220;48.812;9.128;2023-05-02T05:53:11;0.73;;;0.60;;
22107;SDS011;11220;48.812;9.128;2023-05-02T05:55:37;0.68;;;0.65;;
22107;SDS011;11220;48.812;9.128;2023-05-02T05:58:03;0.70;;;0.70;;
22107;SDS011;11220;48.812;9.128;2023-05-02T06:00:29;0.93;;;0.70;;
22107;SDS011;11220;48.812;9.128;2023-05-02T06:02:55;0.60;;;0.60;;
22107;SDS011;11220;48.812;9.128;2023-05-02T06:05:20;0.60;;;0.60;;
22107;SDS011;11220;48.812;9.128;2023-05-02T06:07:46;0.70;;;0.70;;
22107;SDS011;11220;48.812;9.128;2023-05-02T06:10:11;0.70;;;0.70;;
22107;SDS011;11220;48.812;9.128;2023-05-02T06:12:37;0.65;;;0.65;;
22107;SDS011;11220;48.812;9.128;2023-05-02T06:15:03;1.58;;;0.80;;
22107;SDS011;11220;48.812;9.128;2023-05-02T06:17:28;0.70;;;0.60;;
22107;SDS011;11220;48.812;9.128;2023-05-02T06:19:54;0.70;;;0.60;;
22107;SDS011;11220;48.812;9.128;2023-05-02T06:22:20;0.60;;;0.60;;
22107;SDS011;11220;48.812;9.128;2023-05-02T06:24:45;0.82;;;0.70;;
22107;SDS011;11220;48.812;9.128;2023-05-02T06:27:11;1.10;;;0.85;;
22107;SDS011;11220;48.812;9.128;2023-05-02T06:29:36;1.17;;;0.77;;
22107;SDS011;11220;48.812;9.128;2023-05-02T06:32:02;0.45;;;0.45;;
22107;SDS011;11220;48.812;9.128;2023-05-02T06:34:30;1.00;;;0.80;;
22107;SDS011;11220;48.812;9.128;2023-05-02T06:36:57;0.73;;;0.73;;
22107;SDS011;11220;48.812;9.128;2023-05-02T06:39:22;0.75;;;0.70;;
22107;SDS011;11220;48.812;9.128;2023-05-02T06:41:48;0.77;;;0.70;;
22107;SDS011;11220;48.812;9.128;2023-05-02T06:44:13;0.70;;;0.70;;
22107;SDS011;11220;48.812;9.128;2023-05-02T06:46:39;1.00;;;0.90;;
22107;SDS011;11220;48.812;9.128;2023-05-02T06:49:04;1.30;;;1.10;;
22107;SDS011;11220;48.812;9.128;2023-05-02T06:51:30;0.68;;;0.65;;
22107;SDS011;11220;48.812;9.128;2023-05-02T06:53:56;0.82;;;0.82;;
22107;SDS011;11220;48.812;9.128;2023-05-02T06:56:22;0.90;;;0.90;;
22107;SDS011;11220;48.812;9.128;2023-05-02T06:58:49;1.85;;;1.00;;
22107;SDS011;11220;48.812;9.128;2023-05-02T07:01:16;1.10;;;1.00;;
22107;SDS011;11220;48.812;9.128;2023-05-02T07:03:41;1.00;;;0.90;;
22107;SDS011;11220;48.812;9.128;2023-05-02T07:06:07;1.10;;;1.00;;
22107;SDS011;11220;48.812;9.128;2023-05-02T07:08:32;1.25;;;1.15;;
22107;SDS011;11220;48.812;9.128;2023-05-02T07:10:58;1.13;;;0.90;;
22107;SDS011;11220;48.812;9.128;2023-05-02T07:13:23;1.45;;;1.25;;
22107;SDS011;11220;48.812;9.128;2023-05-02T07:15:49;1.30;;;1.15;;
22107;SDS011;11220;48.812;9.128;2023-05-02T07:18:14;1.23;;;1.08;;
22107;SDS011;11220;48.812;9.128;2023-05-02T07:20:40;1.23;;;1.05;;
22107;SDS011;11220;48.812;9.128;2023-05-02T07:23:06;1.38;;;1.27;;
22107;SDS011;11220;48.812;9.128;2023-05-02T07:25:33;1.55;;;1.17;;
22107;SDS011;11220;48.812;9.128;2023-05-02T07:27:58;1.10;;;1.00;;
22107;SDS011;11220;48.812;9.128;2023-05-02T07:30:24;1.15;;;1.05;;
22107;SDS011;11220;48.812;9.128;2023-05-02T07:32:50;1.38;;;1.23;;
22107;SDS011;11220;48.812;9.128;2023-05-02T07:35:15;1.40;;;1.30;;
22107;SDS011;11220;48.812;9.128;2023-05-02T07:37:41;1.73;;;1.35;;
22107;SDS011;11220;48.812;9.128;2023-05-02T07:40:08;2.03;;;1.50;;
22107;SDS011;11220;48.812;9.128;2023-05-02T07:42:33;1.23;;;1.13;;
22107;SDS011;11220;48.812;9.128;2023-05-02T07:45:00;1.50;;;1.40;;
22107;SDS011;11220;48.812;9.128;2023-05-02T07:47:26;1.30;;;1.20;;
22107;SDS011;11220;48.812;9.128;2023-05-02T07:49:52;1.80;;;1.40;;
22107;SDS011;11220;48.812;9.128;2023-05-02T07:52:19;1.52;;;1.30;;
22107;SDS011;11220;48.812;9.128;2023-05-02T07:54:44;1.23;;;1.10;;
22107;SDS011;11220;48.812;9.128;2023-05-02T07:57:12;1.20;;;1.10;;
22107;SDS011;11220;48.812;9.128;2023-05-02T07:59:37;1.17;;;1.08;;
22107;SDS011;11220;48.812;9.128;2023-05-02T08:02:03;1.30;;;1.17;;
22107;SDS011;11220;48.812;9.128;2023-05-02T08:04:29;1.40;;;1.30;;
22107;SDS011;11220;48.812;9.128;2023-05-02T08:06:55;1.40;;;1.20;;
22107;SDS011;11220;48.812;9.128;2023-05-02T08:09:21;1.27;;;1.08;;
22107;SDS011;11220;48.812;9.128;2023-05-02T08:11:46;1.38;;;1.27;;
22107;SDS011;11220;48.812;9.128;2023-05-02T08:14:12;1.20;;;1.10;;
22107;SDS011;11220;48.812;9.128;2023-05-02T08:16:39;1.17;;;1.00;;
22107;SDS011;11220;48.812;9.128;2023-05-02T08:19:04;1.42;;;1.17;;
22107;SDS011;11220;48.812;9.128;2023-05-02T08:21:30;1.30;;;1.15;;
22107;SDS011;11220;48.812;9.128;2023-05-02T08:23:56;1.27;;;1.17;;
22107;SDS011;11220;48.812;9.128;2023-05-02T08:26:22;1.17;;;1.08;;
22107;SDS011;11220;48.812;9.128;2023-05-02T08:28:49;1.15;;;1.02;;
22107;SDS011;11220;48.812;9.128;2023-05-02T08:31:15;1.30;;;1.10;;
22107;SDS011;11220;48.812;9.128;2023-05-02T08:33:41;0.90;;;0.82;;
22107;SDS011;11220;48.812;9.128;2023-05-02T08:36:10;1.25;;;1.15;;
22107;SDS011;11220;48.812;9.128;2023-05-02T08:38:37;0.90;;;0.90;;
22107;SDS011;11220;48.812;9.128;2023-05-02T08:41:08;1.13;;;1.02;;
22107;SDS011;11220;48.812;9.128;2023-05-02T08:43:38;1.10;;;1.00;;
22107;SDS011;11220;48.812;9.128;2023-05-02T08:46:04;1.33;;;1.20;;
22107;SDS011;11220;48.812;9.128;2023-05-02T08:48:34;0.98;;;0.98;;
22107;SDS011;11220;48.812;9.128;2023-05-02T08:51:01;0.98;;;0.88;;
22107;SDS011;11220;48.812;9.128;2023-05-02T08:53:28;0.80;;;0.80;;
22107;SDS011;11220;48.812;9.128;2023-05-02T08:55:58;1.27;;;0.80;;
22107;SDS011;11220;48.812;9.128;2023-05-02T08:58:24;0.80;;;0.80;;
22107;SDS011;11220;48.812;9.128;2023-05-02T09:00:50;1.00;;;0.80;;
22107;SDS011;11220;48.812;9.128;2023-05-02T09:03:33;0.90;;;0.90;;
22107;SDS011;11220;48.812;9.128;2023-05-02T09:08:39;0.93;;;0.80;;
22107;SDS011;11220;48.812;9.128;2023-05-02T09:11:06;0.90;;;0.80;;
22107;SDS011;11220;48.812;9.128;2023-05-02T09:13:34;1.10;;;0.80;;
22107;SDS011;11220;48.812;9.128;2023-05-02T09:16:11;0.85;;;0.82;;
22107;SDS011;11220;48.812;9.128;2023-05-02T09:18:42;0.82;;;0.82;;
22107;SDS011;11220;48.812;9.128;2023-05-02T09:21:10;0.90;;;0.90;;
22107;SDS011;11220;48.812;9.128;2023-05-02T09:28:40;0.82;;;0.82;;
22107;SDS011;11220;48.812;9.128;2023-05-02T09:31:29;0.80;;;0.80;;
22107;SDS011;11220;48.812;9.128;2023-05-02T09:34:22;0.90;;;0.90;;
22107;SDS011;11220;48.812;9.128;2023-05-02T09:36:48;1.00;;;0.90;;
22107;SDS011;11220;48.812;9.128;2023-05-02T09:39:23;0.80;;;0.80;;
22107;SDS011;11220;48.812;9.128;2023-05-02T09:41:56;1.27;;;1.10;;
22107;SDS011;11220;48.812;9.128;2023-05-02T09:44:26;1.13;;;1.02;;
22107;SDS011;11220;48.812;9.128;2023-05-02T09:47:00;1.02;;;0.90;;
22107;SDS011;11220;48.812;9.128;2023-05-02T09:49:42;0.85;;;0.85;;
22107;SDS011;11220;48.812;9.128;2023-05-02T09:52:12;0.80;;;0.80;;
22107;SDS011;11220;48.812;9.128;2023-05-02T09:54:45;1.00;;;0.93;;
22107;SDS011;11220;48.812;9.128;2023-05-02T09:57:11;1.10;;;0.90;;
22107;SDS011;11220;48.812;9.128;2023-05-02T09:59:40;1.13;;;1.02;;
22107;SDS011;11220;48.812;9.128;2023-05-02T10:02:06;1.08;;;1.00;;
22107;SDS011;11220;48.812;9.128;2023-05-02T10:04:35;1.38;;;1.05;;
22107;SDS011;11220;48.812;9.128;2023-05-02T10:07:02;1.05;;;0.90;;
22107;SDS011;11220;48.812;9.128;2023-05-02T10:09:30;1.20;;;1.10;;
22107;SDS011;11220;48.812;9.128;2023-05-02T10:12:00;1.10;;;1.00;;
22107;SDS011;11220;48.812;9.128;2023-05-02T10:14:33;1.15;;;1.13;;
22107;SDS011;11220;48.812;9.128;2023-05-02T10:17:12;1.50;;;1.15;;
22107;SDS011;11220;48.812;9.128;2023-05-02T10:22:21;1.23;;;1.13;;
22107;SDS011;11220;48.812;9.128;2023-05-02T10:24:47;0.93;;;0.93;;
22107;SDS011;11220;48.812;9.128;2023-05-02T10:27:14;1.10;;;1.00;;
22107;SDS011;11220;48.812;9.128;2023-05-02T10:29:40;1.02;;;1.00;;
22107;SDS011;11220;48.812;9.128;2023-05-02T10:32:06;1.10;;;1.00;;
22107;SDS011;11220;48.812;9.128;2023-05-02T10:34:33;0.80;;;0.80;;
22107;SDS011;11220;48.812;9.128;2023-05-02T10:36:59;0.95;;;0.93;;
22107;SDS011;11220;48.812;9.128;2023-05-02T10:39:26;1.10;;;1.00;;
22107;SDS011;11220;48.812;9.128;2023-05-02T10:41:53;1.30;;;1.20;;
22107;SDS011;11220;48.812;9.128;2023-05-02T10:46:59;1.00;;;0.93;;
22107;SDS011;11220;48.812;9.128;2023-05-02T10:49:24;1.30;;;1.00;;
22107;SDS011;11220;48.812;9.128;2023-05-02T10:51:51;1.20;;;1.10;;
22107;SDS011;11220;48.812;9.128;2023-05-02T10:59:40;1.05;;;1.02;;
22107;SDS011;11220;48.812;9.128;2023-05-02T11:04:57;1.23;;;1.13;;
22107;SDS011;11220;48.812;9.128;2023-05-02T11:07:26;1.20;;;1.00;;
22107;SDS011;11220;48.812;9.128;2023-05-02T11:09:52;1.50;;;1.38;;
22107;SDS011;11220;48.812;9.128;2023-05-02T11:17:59;1.40;;;1.23;;
22107;SDS011;11220;48.812;9.128;2023-05-02T11:20:26;1.30;;;1.20;;
22107;SDS011;11220;48.812;9.128;2023-05-02T11:22:53;1.48;;;1.38;;
22107;SDS011;11220;48.812;9.128;2023-05-02T11:25:35;1.38;;;1.27;;
22107;SDS011;11220;48.812;9.128;2023-05-02T11:28:03;1.30;;;1.20;;
22107;SDS011;11220;48.812;9.128;2023-05-02T11:30:37;1.73;;;1.33;;
22107;SDS011;11220;48.812;9.128;2023-05-02T11:35:28;1.25;;;1.15;;
22107;SDS011;11220;48.812;9.128;2023-05-02T11:38:02;1.50;;;1.10;;
22107;SDS011;11220;48.812;9.128;2023-05-02T11:40:29;1.20;;;1.10;;
22107;SDS011;11220;48.812;9.128;2023-05-02T11:42:56;1.60;;;1.23;;
22107;SDS011;11220;48.812;9.128;2023-05-02T11:45:35;1.30;;;1.20;;
22107;SDS011;11220;48.812;9.128;2023-05-02T11:48:03;1.63;;;1.40;;
22107;SDS011;11220;48.812;9.128;2023-05-02T11:50:30;1.60;;;1.50;;
22107;SDS011;11220;48.812;9.128;2023-05-02T11:52:57;1.55;;;1.45;;
22107;SDS011;11220;48.812;9.128;2023-05-02T11:55:22;1.65;;;1.55;;
22107;SDS011;11220;48.812;9.128;2023-05-02T11:57:48;1.58;;;1.40;;
22107;SDS011;11220;48.812;9.128;2023-05-02T12:00:14;1.42;;;1.33;;
22107;SDS011;11220;48.812;9.128;2023-05-02T12:02:40;1.48;;;1.30;;
22107;SDS011;11220;48.812;9.128;2023-05-02T12:05:08;1.35;;;1.25;;
22107;SDS011;11220;48.812;9.128;2023-05-02T12:10:01;1.35;;;1.25;;
22107;SDS011;11220;48.812;9.128;2023-05-02T12:12:27;1.55;;;1.45;;
22107;SDS011;11220;48.812;9.128;2023-05-02T12:14:52;1.58;;;1.48;;
22107;SDS011;11220;48.812;9.128;2023-05-02T12:17:18;1.73;;;1.60;;
22107;SDS011;11220;48.812;9.128;2023-05-02T12:19:45;1.40;;;1.30;;
22107;SDS011;11220;48.812;9.128;2023-05-02T12:22:12;1.63;;;1.52;;
22107;SDS011;11220;48.812;9.128;2023-05-02T12:24:38;1.58;;;1.48;;
22107;SDS011;11220;48.812;9.128;2023-05-02T12:27:14;1.98;;;1.88;;
22107;SDS011;11220;48.812;9.128;2023-05-02T12:29:41;1.77;;;1.65;;
22107;SDS011;11220;48.812;9.128;2023-05-02T12:32:08;1.85;;;1.73;;
22107;SDS011;11220;48.812;9.128;2023-05-02T12:34:37;2.50;;;1.95;;
22107;SDS011;11220;48.812;9.128;2023-05-02T12:37:04;1.98;;;1.88;;
22107;SDS011;11220;48.812;9.128;2023-05-02T12:39:33;2.05;;;1.83;;
22107;SDS011;11220;48.812;9.128;2023-05-02T12:41:59;2.40;;;2.17;;
22107;SDS011;11220;48.812;9.128;2023-05-02T12:44:35;2.22;;;2.03;;
22107;SDS011;11220;48.812;9.128;2023-05-02T12:47:02;2.00;;;1.90;;
22107;SDS011;11220;48.812;9.128;2023-05-02T12:49:29;2.20;;;2.00;;
22107;SDS011;11220;48.812;9.128;2023-05-02T12:51:55;2.17;;;1.98;;
22107;SDS011;11220;48.812;9.128;2023-05-02T12:54:21;2.50;;;2.30;;
22107;SDS011;11220;48.812;9.128;2023-05-02T12:56:46;2.47;;;2.28;;
22107;SDS011;11220;48.812;9.128;2023-05-02T12:59:31;2.45;;;2.25;;
22107;SDS011;11220;48.812;9.128;2023-05-02T13:01:57;2.35;;;2.15;;
22107;SDS011;11220;48.812;9.128;2023-05-02T13:04:36;2.33;;;2.13;;
22107;SDS011;11220;48.812;9.128;2023-05-02T13:07:03;2.78;;;2.33;;
22107;SDS011;11220;48.812;9.128;2023-05-02T13:09:29;2.75;;;2.55;;
22107;SDS011;11220;48.812;9.128;2023-05-02T13:11:54;2.72;;;2.53;;
22107;SDS011;11220;48.812;9.128;2023-05-02T13:14:21;2.38;;;2.17;;
22107;SDS011;11220;48.812;9.128;2023-05-02T13:16:47;2.63;;;2.40;;
22107;SDS011;11220;48.812;9.128;2023-05-02T13:19:13;3.28;;;2.70;;
22107;SDS011;11220;48.812;9.128;2023-05-02T13:21:39;2.50;;;2.30;;
22107;SDS011;11220;48.812;9.128;2023-05-02T13:24:04;2.72;;;2.40;;
22107;SDS011;11220;48.812;9.128;2023-05-02T13:26:30;2.72;;;2.53;;
22107;SDS011;11220;48.812;9.128;2023-05-02T13:28:56;2.40;;;2.20;;
22107;SDS011;11220;48.812;9.128;2023-05-02T13:31:21;2.55;;;2.35;;
22107;SDS011;11220;48.812;9.128;2023-05-02T13:33:47;2.58;;;2.17;;
22107;SDS011;11220;48.812;9.128;2023-05-02T13:36:13;2.40;;;2.20;;
22107;SDS011;11220;48.812;9.128;2023-05-02T13:38:38;2.95;;;2.35;;
22107;SDS011;11220;48.812;9.128;2023-05-02T13:41:04;2.45;;;2.25;;
22107;SDS011;11220;48.812;9.128;2023-05-02T13:43:29;2.97;;;2.53;;
22107;SDS011;11220;48.812;9.128;2023-05-02T13:45:55;2.80;;;2.60;;
22107;SDS011;11220;48.812;9.128;2023-05-02T13:48:21;2.40;;;2.15;;
22107;SDS011;11220;48.812;9.128;2023-05-02T13:50:46;2.72;;;2.53;;
22107;SDS011;11220;48.812;9.128;2023-05-02T13:53:12;2.60;;;2.40;;
22107;SDS011;11220;48.812;9.128;2023-05-02T13:55:38;2.90;;;2.65;;
22107;SDS011;11220;48.812;9.128;2023-05-02T13:58:03;2.70;;;2.50;;
22107;SDS011;11220;48.812;9.128;2023-05-02T14:00:29;2.70;;;2.50;;
22107;SDS011;11220;48.812;9.128;2023-05-02T14:02:55;2.88;;;2.30;;
22107;SDS011;11220;48.812;9.128;2023-05-02T14:05:20;2.50;;;2.28;;
22107;SDS011;11220;48.812;9.128;2023-05-02T14:07:46;2.65;;;2.45;;
22107;SDS011;11220;48.812;9.128;2023-05-02T14:10:11;2.78;;;2.50;;
22107;SDS011;11220;48.812;9.128;2023-05-02T14:12:37;2.40;;;2.20;;
22107;SDS011;11220;48.812;9.128;2023-05-02T14:15:03;2.65;;;2.45;;
22107;SDS011;11220;48.812;9.128;2023-05-02T14:17:29;2.78;;;2.55;;
22107;SDS011;11220;48.812;9.128;2023-05-02T14:19:55;2.63;;;2.22;;
22107;SDS011;11220;48.812;9.128;2023-05-02T14:22:21;2.95;;;2.65;;
22107;SDS011;11220;48.812;9.128;2023-05-02T14:24:46;2.65;;;2.40;;
22107;SDS011;11220;48.812;9.128;2023-05-02T14:27:12;2.70;;;2.50;;
22107;SDS011;11220;48.812;9.128;2023-05-02T14:29:42;2.17;;;2.08;;
22107;SDS011;11220;48.812;9.128;2023-05-02T14:34:37;3.10;;;2.65;;
22107;SDS011;11220;48.812;9.128;2023-05-02T14:37:03;3.00;;;2.70;;
22107;SDS011;11220;48.812;9.128;2023-05-02T14:39:28;2.58;;;2.35;;
22107;SDS011;11220;48.812;9.128;2023-05-02T14:41:54;2.80;;;2.30;;
22107;SDS011;11220;48.812;9.128;2023-05-02T14:44:19;2.45;;;2.25;;
22107;SDS011;11220;48.812;9.128;2023-05-02T14:46:45;2.13;;;1.92;;
22107;SDS011;11220;48.812;9.128;2023-05-02T14:49:10;2.90;;;2.63;;
22107;SDS011;11220;48.812;9.128;2023-05-02T14:51:36;2.28;;;2.08;;
22107;SDS011;11220;48.812;9.128;2023-05-02T14:54:06;2.28;;;2.03;;
22107;SDS011;11220;48.812;9.128;2023-05-02T14:56:32;2.33;;;1.88;;
22107;SDS011;11220;48.812;9.128;2023-05-02T14:58:57;2.30;;;2.03;;
22107;SDS011;11220;48.812;9.128;2023-05-02T15:01:23;3.22;;;2.42;;
22107;SDS011;11220;48.812;9.128;2023-05-02T15:03:49;3.13;;;2.15;;
22107;SDS011;11220;48.812;9.128;2023-05-02T15:06:15;2.78;;;2.15;;
22107;SDS011;11220;48.812;9.128;2023-05-02T15:08:41;2.47;;;1.92;;
22107;SDS011;11220;48.812;9.128;2023-05-02T15:11:08;2.25;;;1.75;;
22107;SDS011;11220;48.812;9.128;2023-05-02T15:13:35;1.65;;;1.55;;
22107;SDS011;11220;48.812;9.128;2023-05-02T15:16:01;1.92;;;1.67;;
22107;SDS011;11220;48.812;9.128;2023-05-02T15:18:27;1.70;;;1.58;;
22107;SDS011;11220;48.812;9.128;2023-05-02T15:20:53;2.25;;;1.98;;
22107;SDS011;11220;48.812;9.128;2023-05-02T15:23:18;2.03;;;1.83;;
22107;SDS011;11220;48.812;9.128;2023-05-02T15:25:44;2.10;;;1.88;;
22107;SDS011;11220;48.812;9.128;2023-05-02T15:28:09;2.08;;;1.88;;
22107;SDS011;11220;48.812;9.128;2023-05-02T15:30:35;2.45;;;1.83;;
22107;SDS011;11220;48.812;9.128;2023-05-02T15:33:01;1.90;;;1.52;;
22107;SDS011;11220;48.812;9.128;2023-05-02T15:35:27;1.60;;;1.42;;
22107;SDS011;11220;48.812;9.128;2023-05-02T15:37:52;2.45;;;1.70;;
22107;SDS011;11220;48.812;9.128;2023-05-02T15:40:18;1.65;;;1.33;;